sensor_id;sensor_type;location;lat;lon;timestamp;P1;durP1;ratioP1;P2;durP2;ratioP2
73557;SDS011;61829;53.286;10.434;2022-10-31T00:03:47;20.83;;;9.50;;
73557;SDS011;61829;53.286;10.434;2022-10-31T00:06:14;20.98;;;9.73;;
73557;SDS011;61829;53.286;10.434;2022-10-31T00:08:44;18.48;;;10.40;;
73557;SDS011;61829;53.286;10.434;2022-10-31T00:11:17;20.83;;;9.73;;
73557;SDS011;61829;53.286;10.434;2022-10-31T00:13:42;16.55;;;8.88;;
73557;SDS011;61829;53.286;10.434;2022-10-31T00:16:15;19.23;;;9.13;;
73557;SDS011;61829;53.286;10.434;2022-10-31T00:18:52;18.33;;;10.27;;
73557;SDS011;61829;53.286;10.434;2022-10-31T00:21:20;17.70;;;9.75;;
73557;SDS011;61829;53.286;10.434;2022-10-31T00:23:46;17.15;;;9.80;;
73557;SDS011;61829;53.286;10.434;2022-10-31T00:26:12;13.55;;;8.30;;
73557;SDS011;61829;53.286;10.434;2022-10-31T00:28:38;15.07;;;8.20;;
73557;SDS011;61829;53.286;10.434;2022-10-31T00:31:05;13.77;;;7.63;;
73557;SDS011;61829;53.286;10.434;2022-10-31T00:33:33;15.68;;;8.77;;
73557;SDS011;61829;53.286;10.434;2022-10-31T00:36:02;15.52;;;9.30;;
73557;SDS011;61829;53.286;10.434;2022-10-31T00:38:29;18.27;;;8.25;;
73557;SDS011;61829;53.286;10.434;2022-10-31T00:40:55;13.35;;;8.15;;
73557;SDS011;61829;53.286;10.434;2022-10-31T00:43:21;15.23;;;8.07;;
73557;SDS011;61829;53.286;10.434;2022-10-31T00:45:47;18.63;;;8.98;;
73557;SDS011;61829;53.286;10.434;2022-10-31T00:48:13;15.52;;;8.98;;
73557;SDS011;61829;53.286;10.434;2022-10-31T00:50:39;16.60;;;9.30;;
73557;SDS011;61829;53.286;10.434;2022-10-31T00:53:05;14.43;;;8.65;;
73557;SDS011;61829;53.286;10.434;2022-10-31T00:55:32;17.45;;;9.38;;
73557;SDS011;61829;53.286;10.434;2022-10-31T00:57:58;13.45;;;7.65;;
73557;SDS011;61829;53.286;10.434;2022-10-31T01:00:24;13.98;;;8.40;;
73557;SDS011;61829;53.286;10.434;2022-10-31T01:02:51;15.25;;;8.00;;
73557;SDS011;61829;53.286;10.434;2022-10-31T01:05:17;17.30;;;9.00;;
73557;SDS011;61829;53.286;10.434;2022-10-31T01:07:43;15.52;;;9.18;;
73557;SDS011;61829;53.286;10.434;2022-10-31T01:10:10;16.45;;;8.60;;
73557;SDS011;61829;53.286;10.434;2022-10-31T01:12:41;15.05;;;7.47;;
73557;SDS011;61829;53.286;10.434;2022-10-31T01:15:09;16.35;;;8.60;;
73557;SDS011;61829;53.286;10.434;2022-10-31T01:17:37;16.38;;;8.77;;
73557;SDS011;61829;53.286;10.434;2022-10-31T01:20:04;16.77;;;8.23;;
73557;SDS011;61829;53.286;10.434;2022-10-31T01:22:31;17.67;;;9.85;;
73557;SDS011;61829;53.286;10.434;2022-10-31T01:24:57;18.27;;;8.85;;
73557;SDS011;61829;53.286;10.434;2022-10-31T01:27:23;14.95;;;9.50;;
73557;SDS011;61829;53.286;10.434;2022-10-31T01:29:49;14.75;;;8.77;;
73557;SDS011;61829;53.286;10.434;2022-10-31T01:32:15;17.15;;;8.27;;
73557;SDS011;61829;53.286;10.434;2022-10-31T01:34:41;17.85;;;9.48;;
73557;SDS011;61829;53.286;10.434;2022-10-31T01:37:07;16.80;;;8.93;;
73557;SDS011;61829;53.286;10.434;2022-10-31T01:39:33;15.00;;;8.80;;
73557;SDS011;61829;53.286;10.434;2022-10-31T01:41:58;19.00;;;9.40;;
73557;SDS011;61829;53.286;10.434;2022-10-31T01:46:58;20.60;;;9.38;;
73557;SDS011;61829;53.286;10.434;2022-10-31T01:49:34;15.27;;;9.13;;
73557;SDS011;61829;53.286;10.434;2022-10-31T01:52:24;17.88;;;8.60;;
73557;SDS011;61829;53.286;10.434;2022-10-31T01:54:55;19.48;;;9.82;;
73557;SDS011;61829;53.286;10.434;2022-10-31T01:57:33;19.10;;;10.27;;
73557;SDS011;61829;53.286;10.434;2022-10-31T02:00:03;19.67;;;10.13;;
73557;SDS011;61829;53.286;10.434;2022-10-31T02:02:32;16.60;;;9.70;;
73557;SDS011;61829;53.286;10.434;2022-10-31T02:04:58;20.02;;;10.05;;
73557;SDS011;61829;53.286;10.434;2022-10-31T02:07:28;23.85;;;11.27;;
73557;SDS011;61829;53.286;10.434;2022-10-31T02:10:23;17.08;;;8.98;;
73557;SDS011;61829;53.286;10.434;2022-10-31T02:12:53;16.75;;;9.05;;
73557;SDS011;61829;53.286;10.434;2022-10-31T02:15:22;21.92;;;9.95;;
73557;SDS011;61829;53.286;10.434;2022-10-31T02:17:48;20.17;;;11.05;;
73557;SDS011;61829;53.286;10.434;2022-10-31T02:20:16;18.00;;;10.50;;
73557;SDS011;61829;53.286;10.434;2022-10-31T02:33:38;27.98;;;13.25;;
73557;SDS011;61829;53.286;10.434;2022-10-31T02:36:22;24.58;;;12.50;;
73557;SDS011;61829;53.286;10.434;2022-10-31T02:41:34;25.77;;;14.23;;
73557;SDS011;61829;53.286;10.434;2022-10-31T02:49:15;33.95;;;16.30;;
73557;SDS011;61829;53.286;10.434;2022-10-31T02:51:48;41.83;;;17.90;;
73557;SDS011;61829;53.286;10.434;2022-10-31T02:54:18;38.95;;;18.63;;
73557;SDS011;61829;53.286;10.434;2022-10-31T02:56:47;42.03;;;19.30;;
73557;SDS011;61829;53.286;10.434;2022-10-31T02:59:16;37.72;;;19.48;;
73557;SDS011;61829;53.286;10.434;2022-10-31T03:12:16;57.00;;;23.95;;
73557;SDS011;61829;53.286;10.434;2022-10-31T03:14:53;53.55;;;21.33;;
73557;SDS011;61829;53.286;10.434;2022-10-31T03:17:22;60.15;;;23.92;;
73557;SDS011;61829;53.286;10.434;2022-10-31T03:19:57;57.50;;;23.05;;
73557;SDS011;61829;53.286;10.434;2022-10-31T03:22:27;53.58;;;23.75;;
73557;SDS011;61829;53.286;10.434;2022-10-31T03:24:56;61.25;;;23.80;;
73557;SDS011;61829;53.286;10.434;2022-10-31T03:27:26;61.53;;;23.75;;
73557;SDS011;61829;53.286;10.434;2022-10-31T03:29:55;68.50;;;24.52;;
73557;SDS011;61829;53.286;10.434;2022-10-31T03:35:04;59.95;;;24.60;;
73557;SDS011;61829;53.286;10.434;2022-10-31T03:37:34;67.05;;;24.15;;
73557;SDS011;61829;53.286;10.434;2022-10-31T03:40:02;61.05;;;24.63;;
73557;SDS011;61829;53.286;10.434;2022-10-31T03:42:33;64.20;;;24.67;;
73557;SDS011;61829;53.286;10.434;2022-10-31T03:45:06;63.03;;;24.27;;
73557;SDS011;61829;53.286;10.434;2022-10-31T03:47:37;69.75;;;23.88;;
73557;SDS011;61829;53.286;10.434;2022-10-31T03:50:05;58.47;;;23.70;;
73557;SDS011;61829;53.286;10.434;2022-10-31T03:55:32;63.08;;;23.38;;
73557;SDS011;61829;53.286;10.434;2022-10-31T03:58:08;59.80;;;22.98;;
73557;SDS011;61829;53.286;10.434;2022-10-31T04:00:41;64.85;;;23.63;;
73557;SDS011;61829;53.286;10.434;2022-10-31T04:03:11;58.40;;;23.50;;
73557;SDS011;61829;53.286;10.434;2022-10-31T04:05:45;68.85;;;23.88;;
73557;SDS011;61829;53.286;10.434;2022-10-31T04:08:15;51.53;;;22.70;;
73557;SDS011;61829;53.286;10.434;2022-10-31T04:10:46;59.40;;;24.80;;
73557;SDS011;61829;53.286;10.434;2022-10-31T04:13:16;57.17;;;22.40;;
73557;SDS011;61829;53.286;10.434;2022-10-31T04:15:46;59.15;;;22.63;;
73557;SDS011;61829;53.286;10.434;2022-10-31T04:18:14;52.45;;;21.67;;
73557;SDS011;61829;53.286;10.434;2022-10-31T04:20:40;57.20;;;23.50;;
73557;SDS011;61829;53.286;10.434;2022-10-31T04:25:42;45.58;;;20.42;;
73557;SDS011;61829;53.286;10.434;2022-10-31T04:28:08;50.45;;;21.60;;
73557;SDS011;61829;53.286;10.434;2022-10-31T04:30:33;54.80;;;23.40;;
73557;SDS011;61829;53.286;10.434;2022-10-31T04:33:00;53.17;;;20.70;;
73557;SDS011;61829;53.286;10.434;2022-10-31T04:35:25;49.40;;;22.17;;
73557;SDS011;61829;53.286;10.434;2022-10-31T04:37:52;48.33;;;21.73;;
73557;SDS011;61829;53.286;10.434;2022-10-31T04:40:18;47.78;;;20.52;;
73557;SDS011;61829;53.286;10.434;2022-10-31T04:42:44;53.30;;;21.73;;
73557;SDS011;61829;53.286;10.434;2022-10-31T04:45:09;49.03;;;20.50;;
73557;SDS011;61829;53.286;10.434;2022-10-31T04:47:36;46.28;;;20.02;;
73557;SDS011;61829;53.286;10.434;2022-10-31T04:50:02;39.25;;;19.75;;
73557;SDS011;61829;53.286;10.434;2022-10-31T04:52:29;49.63;;;20.58;;
73557;SDS011;61829;53.286;10.434;2022-10-31T04:54:54;47.72;;;21.73;;
73557;SDS011;61829;53.286;10.434;2022-10-31T04:57:20;45.25;;;20.15;;
73557;SDS011;61829;53.286;10.434;2022-10-31T04:59:46;38.45;;;18.38;;
73557;SDS011;61829;53.286;10.434;2022-10-31T05:02:12;37.58;;;19.02;;
73557;SDS011;61829;53.286;10.434;2022-10-31T05:04:59;44.55;;;20.63;;
73557;SDS011;61829;53.286;10.434;2022-10-31T05:07:31;43.90;;;21.38;;
73557;SDS011;61829;53.286;10.434;2022-10-31T05:09:57;44.22;;;19.92;;
73557;SDS011;61829;53.286;10.434;2022-10-31T05:12:23;45.72;;;19.92;;
73557;SDS011;61829;53.286;10.434;2022-10-31T05:14:49;47.17;;;20.10;;
73557;SDS011;61829;53.286;10.434;2022-10-31T05:17:15;44.25;;;20.48;;
73557;SDS011;61829;53.286;10.434;2022-10-31T05:19:41;42.72;;;19.10;;
73557;SDS011;61829;53.286;10.434;2022-10-31T05:22:06;45.22;;;19.42;;
73557;SDS011;61829;53.286;10.434;2022-10-31T05:24:32;47.22;;;20.75;;
73557;SDS011;61829;53.286;10.434;2022-10-31T05:26:58;46.17;;;20.83;;
73557;SDS011;61829;53.286;10.434;2022-10-31T05:29:24;57.40;;;21.25;;
73557;SDS011;61829;53.286;10.434;2022-10-31T05:31:52;61.33;;;24.13;;
73557;SDS011;61829;53.286;10.434;2022-10-31T05:34:18;48.97;;;20.55;;
73557;SDS011;61829;53.286;10.434;2022-10-31T05:36:44;54.10;;;22.17;;
73557;SDS011;61829;53.286;10.434;2022-10-31T05:39:10;54.78;;;21.63;;
73557;SDS011;61829;53.286;10.434;2022-10-31T05:41:36;57.92;;;23.27;;
73557;SDS011;61829;53.286;10.434;2022-10-31T05:44:02;55.67;;;21.95;;
73557;SDS011;61829;53.286;10.434;2022-10-31T05:46:28;68.50;;;23.75;;
73557;SDS011;61829;53.286;10.434;2022-10-31T05:48:54;61.38;;;23.58;;
73557;SDS011;61829;53.286;10.434;2022-10-31T05:51:20;63.55;;;23.92;;
73557;SDS011;61829;53.286;10.434;2022-10-31T05:53:46;56.25;;;22.77;;
73557;SDS011;61829;53.286;10.434;2022-10-31T05:56:12;58.55;;;23.08;;
73557;SDS011;61829;53.286;10.434;2022-10-31T05:58:38;57.20;;;23.70;;
73557;SDS011;61829;53.286;10.434;2022-10-31T06:01:04;51.90;;;22.73;;
73557;SDS011;61829;53.286;10.434;2022-10-31T06:03:31;64.47;;;22.95;;
73557;SDS011;61829;53.286;10.434;2022-10-31T06:05:57;64.32;;;23.52;;
73557;SDS011;61829;53.286;10.434;2022-10-31T06:08:22;58.67;;;22.95;;
73557;SDS011;61829;53.286;10.434;2022-10-31T06:10:48;63.55;;;23.65;;
73557;SDS011;61829;53.286;10.434;2022-10-31T06:13:15;56.67;;;23.02;;
73557;SDS011;61829;53.286;10.434;2022-10-31T06:15:41;56.00;;;21.75;;
73557;SDS011;61829;53.286;10.434;2022-10-31T06:18:07;55.78;;;21.55;;
73557;SDS011;61829;53.286;10.434;2022-10-31T06:20:33;56.20;;;22.30;;
73557;SDS011;61829;53.286;10.434;2022-10-31T06:23:00;68.20;;;22.33;;
73557;SDS011;61829;53.286;10.434;2022-10-31T06:25:26;58.63;;;23.38;;
73557;SDS011;61829;53.286;10.434;2022-10-31T06:27:53;58.03;;;21.13;;
73557;SDS011;61829;53.286;10.434;2022-10-31T06:30:19;52.70;;;21.35;;
73557;SDS011;61829;53.286;10.434;2022-10-31T06:32:45;47.88;;;22.20;;
73557;SDS011;61829;53.286;10.434;2022-10-31T06:35:11;55.70;;;21.08;;
73557;SDS011;61829;53.286;10.434;2022-10-31T06:37:37;47.15;;;20.45;;
73557;SDS011;61829;53.286;10.434;2022-10-31T06:40:03;48.08;;;20.48;;
73557;SDS011;61829;53.286;10.434;2022-10-31T06:42:30;52.13;;;19.67;;
73557;SDS011;61829;53.286;10.434;2022-10-31T06:44:55;50.17;;;21.38;;
73557;SDS011;61829;53.286;10.434;2022-10-31T06:47:34;52.13;;;19.33;;
73557;SDS011;61829;53.286;10.434;2022-10-31T06:50:11;47.28;;;18.80;;
73557;SDS011;61829;53.286;10.434;2022-10-31T06:52:37;52.58;;;20.40;;
73557;SDS011;61829;53.286;10.434;2022-10-31T06:55:03;45.15;;;19.13;;
73557;SDS011;61829;53.286;10.434;2022-10-31T06:57:29;53.67;;;20.20;;
73557;SDS011;61829;53.286;10.434;2022-10-31T06:59:55;44.45;;;18.23;;
73557;SDS011;61829;53.286;10.434;2022-10-31T07:02:21;43.75;;;20.10;;
73557;SDS011;61829;53.286;10.434;2022-10-31T07:04:47;43.78;;;18.30;;
73557;SDS011;61829;53.286;10.434;2022-10-31T07:07:13;43.30;;;18.10;;
73557;SDS011;61829;53.286;10.434;2022-10-31T07:09:39;45.78;;;17.25;;
73557;SDS011;61829;53.286;10.434;2022-10-31T07:12:05;41.05;;;17.52;;
73557;SDS011;61829;53.286;10.434;2022-10-31T07:14:31;44.90;;;17.77;;
73557;SDS011;61829;53.286;10.434;2022-10-31T07:16:57;43.42;;;17.98;;
73557;SDS011;61829;53.286;10.434;2022-10-31T07:19:23;44.75;;;17.45;;
73557;SDS011;61829;53.286;10.434;2022-10-31T07:21:49;39.67;;;17.50;;
73557;SDS011;61829;53.286;10.434;2022-10-31T07:24:15;45.95;;;17.85;;
73557;SDS011;61829;53.286;10.434;2022-10-31T07:26:41;40.95;;;16.83;;
73557;SDS011;61829;53.286;10.434;2022-10-31T07:29:07;40.30;;;16.67;;
73557;SDS011;61829;53.286;10.434;2022-10-31T07:31:33;38.58;;;17.33;;
73557;SDS011;61829;53.286;10.434;2022-10-31T07:33:59;40.38;;;17.10;;
73557;SDS011;61829;53.286;10.434;2022-10-31T07:36:25;40.38;;;16.45;;
73557;SDS011;61829;53.286;10.434;2022-10-31T07:38:51;41.90;;;16.65;;
73557;SDS011;61829;53.286;10.434;2022-10-31T07:41:17;37.58;;;16.85;;
73557;SDS011;61829;53.286;10.434;2022-10-31T07:43:43;42.80;;;15.85;;
73557;SDS011;61829;53.286;10.434;2022-10-31T07:46:09;34.97;;;16.05;;
73557;SDS011;61829;53.286;10.434;2022-10-31T07:48:36;39.20;;;14.60;;
73557;SDS011;61829;53.286;10.434;2022-10-31T07:51:02;34.70;;;14.02;;
73557;SDS011;61829;53.286;10.434;2022-10-31T07:53:39;37.90;;;14.85;;
73557;SDS011;61829;53.286;10.434;2022-10-31T07:56:21;34.25;;;14.32;;
73557;SDS011;61829;53.286;10.434;2022-10-31T07:58:47;35.88;;;15.95;;
73557;SDS011;61829;53.286;10.434;2022-10-31T08:01:13;32.95;;;14.90;;
73557;SDS011;61829;53.286;10.434;2022-10-31T08:03:38;41.63;;;15.15;;
73557;SDS011;61829;53.286;10.434;2022-10-31T08:06:05;36.58;;;14.45;;
73557;SDS011;61829;53.286;10.434;2022-10-31T08:08:31;41.97;;;15.52;;
73557;SDS011;61829;53.286;10.434;2022-10-31T08:10:57;35.20;;;13.75;;
73557;SDS011;61829;53.286;10.434;2022-10-31T08:13:23;38.90;;;14.10;;
73557;SDS011;61829;53.286;10.434;2022-10-31T08:15:49;34.08;;;13.27;;
73557;SDS011;61829;53.286;10.434;2022-10-31T08:18:17;40.60;;;14.65;;
73557;SDS011;61829;53.286;10.434;2022-10-31T08:20:43;38.58;;;14.40;;
73557;SDS011;61829;53.286;10.434;2022-10-31T08:23:10;35.67;;;13.32;;
73557;SDS011;61829;53.286;10.434;2022-10-31T08:25:37;35.15;;;13.50;;
73557;SDS011;61829;53.286;10.434;2022-10-31T08:28:03;33.42;;;13.27;;
73557;SDS011;61829;53.286;10.434;2022-10-31T08:30:30;32.97;;;14.27;;
73557;SDS011;61829;53.286;10.434;2022-10-31T08:33:02;35.65;;;13.65;;
73557;SDS011;61829;53.286;10.434;2022-10-31T08:37:56;34.08;;;12.65;;
73557;SDS011;61829;53.286;10.434;2022-10-31T08:40:23;37.97;;;13.05;;
73557;SDS011;61829;53.286;10.434;2022-10-31T08:43:00;35.60;;;13.25;;
73557;SDS011;61829;53.286;10.434;2022-10-31T08:45:28;31.58;;;12.88;;
73557;SDS011;61829;53.286;10.434;2022-10-31T08:48:00;34.22;;;13.60;;
73557;SDS011;61829;53.286;10.434;2022-10-31T08:50:29;36.65;;;12.73;;
73557;SDS011;61829;53.286;10.434;2022-10-31T08:53:02;30.27;;;12.25;;
73557;SDS011;61829;53.286;10.434;2022-10-31T08:55:30;34.45;;;13.48;;
73557;SDS011;61829;53.286;10.434;2022-10-31T08:57:58;29.17;;;13.00;;
73557;SDS011;61829;53.286;10.434;2022-10-31T09:00:25;30.85;;;12.80;;
73557;SDS011;61829;53.286;10.434;2022-10-31T09:02:59;28.05;;;11.57;;
73557;SDS011;61829;53.286;10.434;2022-10-31T09:05:27;35.58;;;13.45;;
73557;SDS011;61829;53.286;10.434;2022-10-31T09:07:57;29.77;;;10.93;;
73557;SDS011;61829;53.286;10.434;2022-10-31T09:10:25;31.08;;;11.80;;
73557;SDS011;61829;53.286;10.434;2022-10-31T09:12:58;30.77;;;12.43;;
73557;SDS011;61829;53.286;10.434;2022-10-31T09:15:26;25.88;;;12.68;;
73557;SDS011;61829;53.286;10.434;2022-10-31T09:17:53;28.05;;;11.63;;
73557;SDS011;61829;53.286;10.434;2022-10-31T09:20:20;33.15;;;12.98;;
73557;SDS011;61829;53.286;10.434;2022-10-31T09:22:46;24.67;;;10.98;;
73557;SDS011;61829;53.286;10.434;2022-10-31T09:25:12;27.15;;;12.63;;
73557;SDS011;61829;53.286;10.434;2022-10-31T09:27:39;25.30;;;11.05;;
73557;SDS011;61829;53.286;10.434;2022-10-31T09:30:05;26.67;;;11.15;;
73557;SDS011;61829;53.286;10.434;2022-10-31T09:32:31;23.30;;;10.40;;
73557;SDS011;61829;53.286;10.434;2022-10-31T09:34:57;25.27;;;10.63;;
73557;SDS011;61829;53.286;10.434;2022-10-31T09:37:23;26.27;;;10.50;;
73557;SDS011;61829;53.286;10.434;2022-10-31T09:39:49;28.25;;;11.40;;
73557;SDS011;61829;53.286;10.434;2022-10-31T09:42:21;27.13;;;11.35;;
73557;SDS011;61829;53.286;10.434;2022-10-31T09:45:13;27.95;;;11.38;;
73557;SDS011;61829;53.286;10.434;2022-10-31T09:50:44;20.30;;;9.30;;
73557;SDS011;61829;53.286;10.434;2022-10-31T09:53:30;22.00;;;9.00;;
73557;SDS011;61829;53.286;10.434;2022-10-31T09:56:04;17.98;;;9.15;;
73557;SDS011;61829;53.286;10.434;2022-10-31T09:58:38;18.70;;;8.82;;
73557;SDS011;61829;53.286;10.434;2022-10-31T10:03:49;20.45;;;8.48;;
73557;SDS011;61829;53.286;10.434;2022-10-31T10:06:21;20.13;;;8.55;;
73557;SDS011;61829;53.286;10.434;2022-10-31T10:08:50;19.35;;;8.63;;
73557;SDS011;61829;53.286;10.434;2022-10-31T10:11:36;22.10;;;8.63;;
73557;SDS011;61829;53.286;10.434;2022-10-31T10:19:48;23.20;;;10.10;;
73557;SDS011;61829;53.286;10.434;2022-10-31T10:30:23;16.63;;;8.32;;
73557;SDS011;61829;53.286;10.434;2022-10-31T10:32:59;16.13;;;7.70;;
73557;SDS011;61829;53.286;10.434;2022-10-31T10:35:30;13.38;;;6.80;;
73557;SDS011;61829;53.286;10.434;2022-10-31T10:41:12;14.60;;;7.18;;
73557;SDS011;61829;53.286;10.434;2022-10-31T10:43:44;15.60;;;6.88;;
73557;SDS011;61829;53.286;10.434;2022-10-31T10:51:37;17.80;;;6.65;;
73557;SDS011;61829;53.286;10.434;2022-10-31T10:59:43;15.00;;;6.28;;
73557;SDS011;61829;53.286;10.434;2022-10-31T11:04:44;15.75;;;6.88;;
73557;SDS011;61829;53.286;10.434;2022-10-31T11:07:15;11.55;;;6.07;;
73557;SDS011;61829;53.286;10.434;2022-10-31T11:09:41;14.65;;;5.93;;
73557;SDS011;61829;53.286;10.434;2022-10-31T11:12:15;12.40;;;5.82;;
73557;SDS011;61829;53.286;10.434;2022-10-31T11:14:47;16.75;;;7.93;;
73557;SDS011;61829;53.286;10.434;2022-10-31T11:17:22;13.32;;;6.30;;
73557;SDS011;61829;53.286;10.434;2022-10-31T11:20:00;14.43;;;5.80;;
73557;SDS011;61829;53.286;10.434;2022-10-31T11:22:26;14.98;;;8.52;;
73557;SDS011;61829;53.286;10.434;2022-10-31T11:24:52;11.35;;;6.47;;
73557;SDS011;61829;53.286;10.434;2022-10-31T11:30:56;13.40;;;6.90;;
73557;SDS011;61829;53.286;10.434;2022-10-31T11:33:35;12.75;;;5.82;;
73557;SDS011;61829;53.286;10.434;2022-10-31T11:36:24;11.27;;;5.57;;
73557;SDS011;61829;53.286;10.434;2022-10-31T11:38:52;12.02;;;5.22;;
73557;SDS011;61829;53.286;10.434;2022-10-31T11:41:27;12.80;;;5.32;;
73557;SDS011;61829;53.286;10.434;2022-10-31T11:43:54;11.27;;;5.35;;
73557;SDS011;61829;53.286;10.434;2022-10-31T11:46:22;11.52;;;5.78;;
73557;SDS011;61829;53.286;10.434;2022-10-31T11:48:56;11.10;;;5.45;;
73557;SDS011;61829;53.286;10.434;2022-10-31T11:51:23;12.02;;;5.90;;
73557;SDS011;61829;53.286;10.434;2022-10-31T11:53:52;11.23;;;5.50;;
73557;SDS011;61829;53.286;10.434;2022-10-31T11:56:22;13.48;;;5.43;;
73557;SDS011;61829;53.286;10.434;2022-10-31T11:59:02;9.32;;;5.75;;
73557;SDS011;61829;53.286;10.434;2022-10-31T12:01:31;13.13;;;6.43;;
73557;SDS011;61829;53.286;10.434;2022-10-31T12:04:08;11.93;;;5.10;;
73557;SDS011;61829;53.286;10.434;2022-10-31T12:09:24;12.73;;;5.50;;
73557;SDS011;61829;53.286;10.434;2022-10-31T12:12:34;12.35;;;5.85;;
73557;SDS011;61829;53.286;10.434;2022-10-31T12:18:01;12.07;;;5.18;;
73557;SDS011;61829;53.286;10.434;2022-10-31T12:23:43;8.55;;;4.38;;
73557;SDS011;61829;53.286;10.434;2022-10-31T12:26:42;9.07;;;4.47;;
73557;SDS011;61829;53.286;10.434;2022-10-31T12:31:52;10.57;;;5.25;;
73557;SDS011;61829;53.286;10.434;2022-10-31T12:43:20;7.20;;;3.70;;
73557;SDS011;61829;53.286;10.434;2022-10-31T12:46:03;9.25;;;4.07;;
73557;SDS011;61829;53.286;10.434;2022-10-31T12:57:13;8.27;;;4.10;;
73557;SDS011;61829;53.286;10.434;2022-10-31T13:00:02;10.63;;;3.72;;
73557;SDS011;61829;53.286;10.434;2022-10-31T13:07:58;6.50;;;3.65;;
73557;SDS011;61829;53.286;10.434;2022-10-31T13:13:18;8.40;;;3.50;;
73557;SDS011;61829;53.286;10.434;2022-10-31T13:15:59;9.32;;;3.35;;
73557;SDS011;61829;53.286;10.434;2022-10-31T13:18:35;9.07;;;3.25;;
73557;SDS011;61829;53.286;10.434;2022-10-31T13:21:09;7.07;;;2.95;;
73557;SDS011;61829;53.286;10.434;2022-10-31T13:23:39;5.97;;;3.22;;
73557;SDS011;61829;53.286;10.434;2022-10-31T13:28:44;8.38;;;3.10;;
73557;SDS011;61829;53.286;10.434;2022-10-31T13:31:14;6.72;;;3.63;;
73557;SDS011;61829;53.286;10.434;2022-10-31T13:33:48;9.00;;;2.95;;
73557;SDS011;61829;53.286;10.434;2022-10-31T13:39:02;8.10;;;3.60;;
73557;SDS011;61829;53.286;10.434;2022-10-31T13:44:26;7.03;;;3.22;;
73557;SDS011;61829;53.286;10.434;2022-10-31T13:46:54;7.70;;;3.58;;
73557;SDS011;61829;53.286;10.434;2022-10-31T13:51:50;7.65;;;3.25;;
73557;SDS011;61829;53.286;10.434;2022-10-31T13:54:23;8.77;;;3.28;;
73557;SDS011;61829;53.286;10.434;2022-10-31T13:56:57;11.00;;;3.65;;
73557;SDS011;61829;53.286;10.434;2022-10-31T13:59:24;7.45;;;3.65;;
73557;SDS011;61829;53.286;10.434;2022-10-31T14:01:56;7.65;;;3.60;;
73557;SDS011;61829;53.286;10.434;2022-10-31T14:09:54;8.23;;;3.88;;
73557;SDS011;61829;53.286;10.434;2022-10-31T14:12:38;12.27;;;3.75;;
73557;SDS011;61829;53.286;10.434;2022-10-31T14:17:59;10.80;;;4.10;;
73557;SDS011;61829;53.286;10.434;2022-10-31T14:20:32;6.88;;;3.75;;
73557;SDS011;61829;53.286;10.434;2022-10-31T14:23:24;10.10;;;3.90;;
73557;SDS011;61829;53.286;10.434;2022-10-31T14:26:05;8.93;;;4.10;;
73557;SDS011;61829;53.286;10.434;2022-10-31T14:28:43;9.95;;;4.20;;
73557;SDS011;61829;53.286;10.434;2022-10-31T14:52:24;10.32;;;4.93;;
73557;SDS011;61829;53.286;10.434;2022-10-31T14:54:51;11.27;;;4.75;;
73557;SDS011;61829;53.286;10.434;2022-10-31T14:57:23;12.55;;;4.93;;
73557;SDS011;61829;53.286;10.434;2022-10-31T14:59:57;10.82;;;5.28;;
73557;SDS011;61829;53.286;10.434;2022-10-31T15:05:06;10.10;;;4.82;;
73557;SDS011;61829;53.286;10.434;2022-10-31T15:07:34;13.50;;;5.20;;
73557;SDS011;61829;53.286;10.434;2022-10-31T15:10:15;9.75;;;5.05;;
73557;SDS011;61829;53.286;10.434;2022-10-31T15:12:46;10.77;;;4.93;;
73557;SDS011;61829;53.286;10.434;2022-10-31T15:15:45;9.10;;;4.97;;
73557;SDS011;61829;53.286;10.434;2022-10-31T15:18:05;10.23;;;4.85;;
73557;SDS011;61829;53.286;10.434;2022-10-31T15:20:33;9.50;;;5.13;;
73557;SDS011;61829;53.286;10.434;2022-10-31T15:23:04;10.27;;;5.22;;
73557;SDS011;61829;53.286;10.434;2022-10-31T15:25:33;11.50;;;5.63;;
73557;SDS011;61829;53.286;10.434;2022-10-31T15:28:00;13.50;;;6.47;;
73557;SDS011;61829;53.286;10.434;2022-10-31T15:30:27;12.45;;;6.80;;
73557;SDS011;61829;53.286;10.434;2022-10-31T15:32:54;12.48;;;7.63;;
73557;SDS011;61829;53.286;10.434;2022-10-31T15:40:20;14.10;;;7.78;;
73557;SDS011;61829;53.286;10.434;2022-10-31T15:42:51;18.80;;;8.15;;
73557;SDS011;61829;53.286;10.434;2022-10-31T15:45:22;16.58;;;10.43;;
73557;SDS011;61829;53.286;10.434;2022-10-31T15:48:00;19.65;;;10.43;;
73557;SDS011;61829;53.286;10.434;2022-10-31T15:53:03;22.77;;;11.95;;
73557;SDS011;61829;53.286;10.434;2022-10-31T15:55:32;24.67;;;13.13;;
73557;SDS011;61829;53.286;10.434;2022-10-31T15:58:03;21.10;;;12.90;;
73557;SDS011;61829;53.286;10.434;2022-10-31T16:00:36;25.02;;;13.43;;
73557;SDS011;61829;53.286;10.434;2022-10-31T16:05:45;21.17;;;12.55;;
73557;SDS011;61829;53.286;10.434;2022-10-31T16:08:48;26.08;;;13.82;;
73557;SDS011;61829;53.286;10.434;2022-10-31T16:13:40;22.05;;;12.50;;
73557;SDS011;61829;53.286;10.434;2022-10-31T16:18:45;25.38;;;12.10;;
73557;SDS011;61829;53.286;10.434;2022-10-31T16:21:11;18.42;;;11.10;;
73557;SDS011;61829;53.286;10.434;2022-10-31T16:23:39;28.40;;;13.23;;
73557;SDS011;61829;53.286;10.434;2022-10-31T16:26:13;21.80;;;12.38;;
73557;SDS011;61829;53.286;10.434;2022-10-31T16:28:50;24.25;;;11.90;;
73557;SDS011;61829;53.286;10.434;2022-10-31T16:31:24;20.73;;;11.52;;
73557;SDS011;61829;53.286;10.434;2022-10-31T16:34:01;21.02;;;10.93;;
73557;SDS011;61829;53.286;10.434;2022-10-31T16:36:31;19.55;;;10.10;;
73557;SDS011;61829;53.286;10.434;2022-10-31T16:39:01;25.30;;;11.05;;
73557;SDS011;61829;53.286;10.434;2022-10-31T16:41:28;21.42;;;10.68;;
73557;SDS011;61829;53.286;10.434;2022-10-31T16:43:53;25.23;;;11.07;;
73557;SDS011;61829;53.286;10.434;2022-10-31T16:46:23;22.63;;;11.63;;
73557;SDS011;61829;53.286;10.434;2022-10-31T16:48:51;22.98;;;10.73;;
73557;SDS011;61829;53.286;10.434;2022-10-31T16:51:18;20.60;;;10.18;;
73557;SDS011;61829;53.286;10.434;2022-10-31T16:53:44;22.48;;;10.23;;
73557;SDS011;61829;53.286;10.434;2022-10-31T16:56:24;21.25;;;10.40;;
73557;SDS011;61829;53.286;10.434;2022-10-31T16:58:59;26.85;;;11.27;;
73557;SDS011;61829;53.286;10.434;2022-10-31T17:01:28;22.02;;;10.30;;
73557;SDS011;61829;53.286;10.434;2022-10-31T17:03:54;23.50;;;10.77;;
73557;SDS011;61829;53.286;10.434;2022-10-31T17:06:19;27.23;;;11.55;;
73557;SDS011;61829;53.286;10.434;2022-10-31T17:08:45;23.83;;;11.32;;
73557;SDS011;61829;53.286;10.434;2022-10-31T17:11:18;19.67;;;10.73;;
73557;SDS011;61829;53.286;10.434;2022-10-31T17:13:47;24.27;;;11.07;;
73557;SDS011;61829;53.286;10.434;2022-10-31T17:16:13;25.52;;;10.07;;
73557;SDS011;61829;53.286;10.434;2022-10-31T17:18:40;24.58;;;11.35;;
73557;SDS011;61829;53.286;10.434;2022-10-31T17:21:09;23.50;;;10.40;;
73557;SDS011;61829;53.286;10.434;2022-10-31T17:23:41;22.80;;;11.85;;
73557;SDS011;61829;53.286;10.434;2022-10-31T17:26:09;21.85;;;10.73;;
73557;SDS011;61829;53.286;10.434;2022-10-31T17:28:35;26.95;;;11.63;;
73557;SDS011;61829;53.286;10.434;2022-10-31T17:31:01;24.67;;;11.27;;